Time;durP1;ratioP1;P1;durP2;ratioP2;P2;SDS_P1;SDS_P2;PMS_P1;PMS_P2;Temp;Humidity;BMP_temperature;BMP_pressure;BME280_temperature;BME280_humidity;BME280_pressure;Samples;Min_cycle;Max_cycle;Signal;HPM_P1;HPM_P2
2022/07/12 00:03:03;;;;;;;2.40;1.43;;;;;;;18.23;62.19;97225.66;10370186;28;20057;-21
2022/07/12 00:08:06;;;;;;;4.10;1.80;;;;;;;18.22;62.12;97222.31;10373298;28;20050;-21
2022/07/12 00:13:06;;;;;;;1.90;1.70;;;;;;;18.16;62.60;97224.78;10371175;28;20495;-21
2022/07/12 00:18:07;;;;;;;3.70;2.20;;;;;;;18.16;62.44;97218.88;10377753;28;20029;-22
2022/07/12 00:23:07;;;;;;;3.05;2.20;;;;;;;18.11;62.74;97220.50;10367371;28;20496;-21
2022/07/12 00:28:08;;;;;;;2.17;1.97;;;;;;;18.18;62.51;97227.34;10375550;28;20034;-21
2022/07/12 00:33:08;;;;;;;2.38;2.17;;;;;;;18.05;62.93;97223.84;10377340;28;20056;-21
2022/07/12 00:38:09;;;;;;;3.33;2.38;;;;;;;18.03;62.91;97220.44;10368208;28;20071;-22
2022/07/12 00:43:09;;;;;;;5.30;3.03;;;;;;;18.06;62.85;97223.00;10370261;28;20042;-21
2022/07/12 00:48:10;;;;;;;4.00;2.57;;;;;;;18.05;62.69;97223.84;10370504;28;20041;-21
2022/07/12 00:53:13;;;;;;;2.90;2.10;;;;;;;18.01;62.84;97219.56;10364700;28;20060;-21
2022/07/12 00:58:13;;;;;;;2.33;1.92;;;;;;;18.05;62.70;97221.31;10371727;28;20033;-21
2022/07/12 01:03:14;;;;;;;2.67;2.43;;;;;;;18.03;62.78;97225.50;10368327;28;20030;-21
2022/07/12 01:08:15;;;;;;;2.38;2.05;;;;;;;18.03;62.91;97217.03;10370364;28;20036;-21
2022/07/12 01:13:16;;;;;;;2.10;1.90;;;;;;;18.06;62.60;97212.00;10370117;28;20041;-22
2022/07/12 01:18:17;;;;;;;1.83;1.73;;;;;;;18.00;62.90;97217.03;10373201;28;20036;-22
2022/07/12 01:23:18;;;;;;;2.40;1.95;;;;;;;18.02;62.72;97211.16;10367212;28;20033;-22
2022/07/12 01:28:19;;;;;;;2.00;1.85;;;;;;;18.02;62.79;97220.41;10373799;28;20425;-22
2022/07/12 01:33:19;;;;;;;2.53;1.70;;;;;;;18.02;62.71;97212.81;10368256;28;20026;-22
2022/07/12 01:38:20;;;;;;;2.28;2.05;;;;;;;17.97;62.87;97214.44;10370007;28;20388;-21
2022/07/12 01:43:20;;;;;;;2.10;1.90;;;;;;;17.96;62.94;97218.69;10366843;28;20528;-21
2022/07/12 01:48:21;;;;;;;2.20;2.00;;;;;;;17.95;62.91;97218.66;10367524;28;20026;-22
2022/07/12 01:53:22;;;;;;;2.67;1.70;;;;;;;17.93;63.14;97210.19;10367714;28;20032;-21
2022/07/12 01:58:23;;;;;;;4.35;1.75;;;;;;;17.91;63.01;97212.69;10365826;28;20035;-21
2022/07/12 02:03:23;;;;;;;1.98;1.52;;;;;;;17.91;63.01;97216.94;10367789;28;20453;-21
2022/07/12 02:08:24;;;;;;;2.22;2.00;;;;;;;17.89;62.97;97219.44;10363084;28;20120;-22
2022/07/12 02:13:24;;;;;;;3.00;1.67;;;;;;;17.89;62.94;97221.97;10368346;28;20103;-21
2022/07/12 02:18:24;;;;;;;2.27;1.70;;;;;;;17.84;63.23;97216.00;10367138;28;20315;-22
2022/07/12 02:23:25;;;;;;;3.40;1.80;;;;;;;17.84;63.15;97226.13;10369760;28;20433;-22
2022/07/12 02:28:25;;;;;;;2.10;1.40;;;;;;;17.83;63.21;97203.34;10374417;28;20409;-22
2022/07/12 02:33:26;;;;;;;2.20;1.77;;;;;;;17.83;63.03;97216.00;10372129;28;20055;-21
2022/07/12 02:38:26;;;;;;;2.10;1.63;;;;;;;17.83;62.87;97208.41;10373881;28;20041;-22
2022/07/12 02:43:29;;;;;;;2.70;1.80;;;;;;;17.77;63.14;97213.41;10374878;28;20096;-22
2022/07/12 02:48:29;;;;;;;2.03;1.65;;;;;;;17.79;63.32;97224.38;10375229;28;20296;-21
2022/07/12 02:53:30;;;;;;;3.70;1.90;;;;;;;17.72;63.41;97223.50;10376942;28;20034;-21
2022/07/12 02:58:30;;;;;;;2.17;1.65;;;;;;;17.74;63.07;97226.03;10377556;28;20108;-21
2022/07/12 03:03:31;;;;;;;3.10;1.63;;;;;;;17.74;63.16;97229.41;10376148;28;20034;-21
2022/07/12 03:08:31;;;;;;;2.90;1.60;;;;;;;17.76;63.21;97224.38;10372542;28;20065;-22
2022/07/12 03:13:32;;;;;;;2.07;1.83;;;;;;;17.73;63.23;97226.88;10378512;28;20030;-22
2022/07/12 03:18:33;;;;;;;2.30;1.85;;;;;;;17.70;63.17;97237.81;10383280;28;20799;-21
2022/07/12 03:23:33;;;;;;;3.05;1.92;;;;;;;17.67;63.10;97231.88;10375507;28;20128;-21
2022/07/12 03:28:33;;;;;;;5.03;1.80;;;;;;;17.71;62.82;97233.59;10382365;28;20034;-21
2022/07/12 03:33:34;;;;;;;1.60;1.50;;;;;;;17.67;62.73;97230.16;10375979;28;20484;-21
2022/07/12 03:38:36;;;;;;;1.47;1.37;;;;;;;17.71;62.57;97234.44;10374940;28;20548;-22
2022/07/12 03:43:36;;;;;;;1.95;1.55;;;;;;;17.65;63.03;97233.53;10374661;28;20030;-21
2022/07/12 03:48:37;;;;;;;1.50;1.40;;;;;;;17.67;62.76;97226.81;10378970;28;20100;-21
2022/07/12 03:53:37;;;;;;;3.23;1.60;;;;;;;17.73;62.29;97229.41;10375511;28;20054;-22
2022/07/12 03:58:37;;;;;;;2.03;1.50;;;;;;;17.75;62.30;97235.34;10372558;28;20037;-21
2022/07/12 04:03:38;;;;;;;2.47;1.80;;;;;;;17.84;61.62;97245.56;10373040;28;20053;-21
2022/07/12 04:08:38;;;;;;;2.75;1.48;;;;;;;17.77;62.05;97243.78;10377561;28;20045;-21
2022/07/12 04:13:39;;;;;;;1.87;1.77;;;;;;;17.70;62.25;97244.56;10377122;28;20106;-23
2022/07/12 04:18:39;;;;;;;1.70;1.58;;;;;;;17.63;62.67;97255.44;10384966;28;20034;-22
2022/07/12 04:23:40;;;;;;;2.97;2.03;;;;;;;17.76;61.75;97262.34;10380793;28;20038;-21
2022/07/12 04:28:40;;;;;;;1.75;1.58;;;;;;;17.68;62.04;97259.72;10373194;28;20037;-21
2022/07/12 04:33:41;;;;;;;2.10;1.90;;;;;;;17.70;62.00;97267.34;10376826;28;20409;-22
2022/07/12 04:38:41;;;;;;;2.37;2.00;;;;;;;17.78;61.56;97265.75;10360084;28;20049;-21
2022/07/12 04:43:41;;;;;;;1.83;1.70;;;;;;;17.76;61.16;97275.03;10367784;28;20030;-21
2022/07/12 04:48:42;;;;;;;3.63;1.97;;;;;;;17.83;61.18;97276.78;10373781;28;20042;-21
2022/07/12 04:53:42;;;;;;;1.83;1.57;;;;;;;17.73;61.46;97272.47;10369293;28;20044;-22
2022/07/12 04:58:42;;;;;;;7.27;3.40;;;;;;;18.08;60.76;97269.47;10368475;28;20022;-21
2022/07/12 05:03:43;;;;;;;8.87;3.40;;;;;;;18.33;59.96;97263.00;10368369;28;20040;-21
2022/07/12 05:08:43;;;;;;;7.38;2.22;;;;;;;18.49;59.71;97274.97;10368041;28;20304;-21
2022/07/12 05:13:44;;;;;;;5.20;1.70;;;;;;;18.67;59.38;97275.13;10368276;28;20050;-21
2022/07/12 05:18:44;;;;;;;5.53;1.73;;;;;;;18.84;59.00;97274.41;10373798;28;20293;-21
2022/07/12 05:23:45;;;;;;;3.00;1.77;;;;;;;18.86;58.83;97276.97;10365195;28;20289;-21
2022/07/12 05:28:45;;;;;;;2.63;1.40;;;;;;;18.81;58.85;97273.53;10375046;28;20038;-21
2022/07/12 05:33:45;;;;;;;2.77;1.70;;;;;;;18.77;58.92;97279.44;10371269;28;20041;-21
2022/07/12 05:38:46;;;;;;;1.70;1.50;;;;;;;18.77;58.70;97271.81;10367550;28;20435;-21
2022/07/12 05:43:46;;;;;;;3.35;1.48;;;;;;;18.77;58.93;97277.72;10368500;28;20037;-21
2022/07/12 05:48:47;;;;;;;3.03;1.45;;;;;;;18.79;59.02;97281.16;10365851;28;20042;-21
2022/07/12 05:53:47;;;;;;;3.10;1.60;;;;;;;18.80;58.84;97281.97;10366136;28;20412;-21
2022/07/12 05:58:48;;;;;;;1.67;1.58;;;;;;;18.76;58.90;97277.72;10369530;28;20026;-21
2022/07/12 06:03:48;;;;;;;2.63;1.33;;;;;;;18.82;58.97;97286.22;10366868;28;20041;-21
2022/07/12 06:08:48;;;;;;;2.03;1.33;;;;;;;18.80;58.89;97274.38;10373702;28;20045;-21
2022/07/12 06:13:50;;;;;;;5.70;1.50;;;;;;;18.83;59.11;97282.84;10373743;28;20476;-21
2022/07/12 06:18:50;;;;;;;2.47;1.45;;;;;;;19.07;58.87;97298.25;10372681;28;20036;-21
2022/07/12 06:23:51;;;;;;;2.83;1.60;;;;;;;19.14;58.60;97299.13;10370508;28;20045;-21
2022/07/12 06:28:51;;;;;;;2.00;1.17;;;;;;;19.04;58.13;97298.25;10371365;28;20045;-21
2022/07/12 06:33:51;;;;;;;3.30;1.40;;;;;;;18.97;58.57;97303.25;10370139;28;20285;-21
2022/07/12 06:38:52;;;;;;;3.22;1.27;;;;;;;18.86;58.66;97287.09;10369707;28;20026;-22
2022/07/12 06:43:52;;;;;;;2.03;1.23;;;;;;;18.92;58.69;97310.00;10367251;28;20033;-21
2022/07/12 06:48:53;;;;;;;1.50;1.40;;;;;;;18.91;58.72;97301.50;10363956;28;20026;-21
2022/07/12 06:53:53;;;;;;;1.80;1.10;;;;;;;18.91;58.86;97305.75;10370692;28;20041;-21
2022/07/12 06:58:53;;;;;;;1.40;1.10;;;;;;;18.92;59.06;97307.47;10368263;28;20304;-21
2022/07/12 07:03:55;;;;;;;1.92;1.20;;;;;;;18.91;58.78;97311.66;10365504;28;20517;-21
2022/07/12 07:08:55;;;;;;;3.83;1.10;;;;;;;18.92;58.78;97312.53;10370884;28;20022;-21
2022/07/12 07:13:55;;;;;;;1.83;1.10;;;;;;;18.93;58.72;97314.22;10373858;28;20293;-21
2022/07/12 07:18:56;;;;;;;1.50;1.17;;;;;;;19.13;59.07;97322.81;10379531;28;20285;-20
2022/07/12 07:23:56;;;;;;;1.73;1.47;;;;;;;19.22;58.67;97315.31;10370672;28;20053;-21
2022/07/12 07:34:15;;;;;;;1.63;1.30;;;;;;;19.06;58.42;97321.06;10374292;28;20051;-21
2022/07/12 07:39:16;;;;;;;2.43;1.17;;;;;;;19.02;58.82;97324.44;10371418;28;20468;-21
2022/07/12 07:44:16;;;;;;;2.10;1.00;;;;;;;18.97;58.63;97332.03;10374097;28;20095;-21
2022/07/12 07:49:16;;;;;;;1.80;1.20;;;;;;;18.98;58.60;97340.47;10374249;28;20335;-21
2022/07/12 07:54:17;;;;;;;1.10;1.00;;;;;;;18.93;58.76;97329.44;10371698;28;20044;-21
2022/07/12 07:59:17;;;;;;;1.20;1.10;;;;;;;18.96;58.83;97337.94;10367733;28;20030;-21
2022/07/12 08:04:20;;;;;;;1.37;1.00;;;;;;;18.97;58.80;97326.09;10372465;28;20049;-21
2022/07/12 08:09:20;;;;;;;1.23;1.05;;;;;;;18.98;58.60;97332.84;10370207;28;20030;-21
2022/07/12 08:14:21;;;;;;;1.27;1.05;;;;;;;18.96;58.68;97329.47;10375919;28;20035;-21
2022/07/12 08:19:21;;;;;;;1.40;1.20;;;;;;;19.14;59.12;97332.13;10373909;28;20569;-21
2022/07/12 08:24:21;;;;;;;1.10;1.00;;;;;;;19.28;58.84;97333.13;10370808;28;20323;-21
2022/07/12 08:29:22;;;;;;;1.45;1.17;;;;;;;19.28;58.09;97333.97;10374494;28;20296;-21
2022/07/12 08:34:22;;;;;;;1.30;1.00;;;;;;;19.16;58.43;97333.03;10371507;28;20048;-21
2022/07/12 08:39:22;;;;;;;1.20;1.10;;;;;;;19.09;58.58;97331.28;10369780;28;20034;-21
2022/07/12 08:44:23;;;;;;;1.20;0.90;;;;;;;19.05;58.49;97332.06;10370786;28;20025;-20
2022/07/12 08:49:23;;;;;;;0.73;0.73;;;;;;;19.01;58.64;97322.75;10367795;28;20030;-21
2022/07/12 08:54:24;;;;;;;1.00;0.90;;;;;;;19.03;58.51;97336.28;10364088;28;20025;-21
2022/07/12 08:59:24;;;;;;;1.00;0.90;;;;;;;19.02;58.66;97329.53;10370195;28;20516;-21
2022/07/12 09:04:27;;;;;;;1.30;0.97;;;;;;;19.01;58.79;97330.34;10370536;28;20048;-21
2022/07/12 09:09:33;;;;;;;1.55;0.85;;;;;;;19.02;58.79;97334.59;10364315;28;20077;-21
2022/07/12 09:14:33;;;;;;;0.83;0.77;;;;;;;19.01;58.79;97337.97;10379020;28;20037;-21
2022/07/12 09:19:34;;;;;;;0.95;0.85;;;;;;;19.13;58.88;97325.34;10376847;28;20435;-21
2022/07/12 09:24:34;;;;;;;1.33;1.03;;;;;;;19.27;59.14;97326.34;10367729;28;20168;-21
2022/07/12 09:29:48;;;;;;;1.27;0.88;;;;;;;19.35;58.34;97335.69;10367133;28;20351;-20
2022/07/12 09:40:15;;;;;;;1.00;0.80;;;;;;;19.16;58.38;97343.16;10365308;28;20041;-20
2022/07/12 09:45:17;;;;;;;2.03;1.10;;;;;;;19.12;58.53;97346.50;10365965;28;20400;-21
2022/07/12 09:50:17;;;;;;;1.15;1.05;;;;;;;19.09;58.68;97351.56;10368795;28;20045;-21
2022/07/12 09:55:21;;;;;;;1.17;1.00;;;;;;;19.04;58.44;97353.22;10367350;28;20435;-21
2022/07/12 10:00:21;;;;;;;0.80;0.77;;;;;;;19.05;58.74;97355.78;10365451;28;20288;-21
2022/07/12 10:05:24;;;;;;;1.30;1.20;;;;;;;19.08;58.66;97360.03;10367294;28;20373;-21
2022/07/12 10:10:27;;;;;;;1.17;0.98;;;;;;;19.05;58.71;97365.06;10365385;28;20033;-21
2022/07/12 10:15:30;;;;;;;1.08;0.95;;;;;;;18.99;58.87;97349.81;10373421;28;20022;-20
2022/07/12 10:20:30;;;;;;;1.25;0.80;;;;;;;19.18;59.41;97361.78;10367412;28;20389;-21
2022/07/12 10:25:34;;;;;;;1.25;1.15;;;;;;;19.31;59.28;97348.38;10370069;28;20038;-21
2022/07/12 10:30:43;;;;;;;1.55;1.10;;;;;;;19.39;58.31;97351.81;10372432;28;20088;-20
2022/07/12 10:36:08;;;;;;;0.80;0.80;;;;;;;19.28;58.28;97345.81;10365384;28;20076;-21
2022/07/12 10:41:24;;;;;;;2.30;0.80;;;;;;;19.19;58.31;97346.59;10366240;28;20056;-20
2022/07/12 10:46:25;;;;;;;2.90;0.90;;;;;;;19.14;58.63;97347.38;10376348;28;20045;-21
2022/07/12 10:51:25;;;;;;;1.10;0.90;;;;;;;19.14;58.65;97349.91;10374957;28;20034;-21
2022/07/12 10:56:27;;;;;;;0.93;0.90;;;;;;;19.12;58.61;97331.28;10378044;28;20034;-21
2022/07/12 11:01:29;;;;;;;1.92;1.30;;;;;;;19.12;58.77;97331.28;10377883;28;20025;-21
2022/07/12 11:06:30;;;;;;;3.50;1.25;;;;;;;19.11;58.97;97327.91;10375607;28;20034;-21
2022/07/12 11:11:33;;;;;;;4.03;1.00;;;;;;;19.10;58.77;97323.66;10369522;28;20034;-21
2022/07/12 11:16:34;;;;;;;3.80;1.27;;;;;;;19.10;59.01;97316.03;10379495;28;20095;-21
2022/07/12 11:21:34;;;;;;;2.97;1.58;;;;;;;19.29;59.71;97324.66;10373731;28;20102;-21
2022/07/12 11:26:35;;;;;;;6.32;2.40;;;;;;;19.46;60.65;97325.59;10380344;28;20496;-21
2022/07/12 11:31:35;;;;;;;2.40;0.93;;;;;;;19.45;58.92;97329.84;10377527;28;20095;-21
2022/07/12 11:36:37;;;;;;;4.40;1.03;;;;;;;19.35;58.99;97327.25;10375146;28;20767;-21
2022/07/12 11:41:37;;;;;;;4.63;1.35;;;;;;;19.27;58.77;97319.56;10373842;28;20779;-21
2022/07/12 11:46:38;;;;;;;4.93;0.93;;;;;;;19.20;59.03;97315.31;10370384;28;20037;-21
2022/07/12 11:51:38;;;;;;;7.82;1.20;;;;;;;19.19;58.97;97313.59;10383819;28;20033;-20
2022/07/12 11:56:39;;;;;;;2.28;1.63;;;;;;;19.14;58.89;97299.13;10372559;28;20101;-20
2022/07/12 12:01:39;;;;;;;7.47;1.27;;;;;;;19.18;59.42;97305.94;10373419;28;20037;-21
2022/07/12 12:06:40;;;;;;;14.02;1.48;;;;;;;19.18;58.93;97318.63;10381548;28;20293;-21
2022/07/12 12:11:40;;;;;;;9.47;1.50;;;;;;;19.17;59.16;97319.47;10375583;28;20042;-21
2022/07/12 12:16:40;;;;;;;6.83;1.70;;;;;;;19.17;59.19;97314.41;10377622;28;20022;-21
2022/07/12 12:21:41;;;;;;;4.87;1.27;;;;;;;19.33;60.02;97311.16;10371021;28;20045;-20
2022/07/12 12:26:41;;;;;;;12.80;1.90;;;;;;;19.51;60.61;97313.81;10369828;28;20042;-21
2022/07/12 12:31:56;;;;;;;1.23;0.83;;;;;;;19.50;59.12;97302.78;10376582;28;20497;-21
2022/07/12 12:37:03;;;;;;;2.10;0.90;;;;;;;19.34;59.05;97292.53;10361292;28;20342;-20
2022/07/12 12:42:04;;;;;;;4.63;1.02;;;;;;;19.33;58.93;97303.53;10372137;28;20053;-21
2022/07/12 12:52:26;;;;;;;13.25;1.73;;;;;;;19.26;59.00;97294.19;10369604;28;20048;-21
2022/07/12 12:57:28;;;;;;;6.55;1.50;;;;;;;19.27;59.62;97295.88;10383388;28;20033;-20
2022/07/12 13:02:28;;;;;;;6.25;1.35;;;;;;;19.17;59.05;97273.78;10364216;28;20480;-21
2022/07/12 13:07:29;;;;;;;0.83;0.80;;;;;;;19.21;58.99;97285.69;10374996;28;20030;-22
2022/07/12 13:12:29;;;;;;;1.60;1.03;;;;;;;19.21;58.94;97280.59;10368132;28;20037;-21
2022/07/12 13:17:30;;;;;;;4.03;1.20;;;;;;;19.20;58.76;97278.91;10369247;28;20076;-19
2022/07/12 13:22:31;;;;;;;7.45;1.65;;;;;;;19.43;59.61;97282.44;10365243;28;20372;-21
2022/07/12 13:27:31;;;;;;;10.15;2.83;;;;;;;19.52;61.12;97263.00;10372821;28;20063;-21
2022/07/12 13:32:32;;;;;;;4.93;1.95;;;;;;;19.54;58.77;97260.47;10362968;28;20030;-21
2022/07/12 13:37:33;;;;;;;2.27;1.30;;;;;;;19.43;59.38;97269.72;10371615;28;20033;-20
2022/07/12 13:42:34;;;;;;;8.02;1.40;;;;;;;19.37;58.93;97273.09;10368640;28;20125;-20
2022/07/12 13:47:34;;;;;;;6.50;1.30;;;;;;;19.34;59.03;97280.69;10370817;28;20508;-20
2022/07/12 13:52:35;;;;;;;5.40;1.38;;;;;;;19.32;58.95;97268.81;10366871;28;20409;-21
2022/07/12 13:57:36;;;;;;;8.75;1.58;;;;;;;19.30;58.89;97271.38;10367641;28;20087;-21
2022/07/12 14:02:41;;;;;;;5.05;1.67;;;;;;;19.21;58.94;97257.75;10366086;28;20061;-21
2022/07/12 14:07:43;;;;;;;5.43;1.83;;;;;;;19.28;59.09;97262.91;10366404;28;20489;-20
2022/07/12 14:12:43;;;;;;;6.00;1.80;;;;;;;19.27;58.95;97260.34;10366808;28;20112;-21
2022/07/12 14:17:49;;;;;;;11.38;1.80;;;;;;;19.29;58.94;97264.59;10380781;28;20043;-21
2022/07/12 14:22:49;;;;;;;3.40;1.63;;;;;;;19.45;59.90;97261.28;10369471;28;20125;-21
2022/07/12 14:27:50;;;;;;;4.93;2.00;;;;;;;19.61;61.29;97259.66;10380373;28;20048;-21
2022/07/12 14:32:51;;;;;;;4.45;1.35;;;;;;;19.60;58.82;97252.88;10377590;28;20038;-21
2022/07/12 14:37:51;;;;;;;2.80;1.38;;;;;;;19.28;59.69;97221.41;10370373;28;20049;-20
2022/07/12 14:42:51;;;;;;;3.63;1.53;;;;;;;19.42;59.20;97262.97;10376570;28;20664;-21
2022/07/12 14:47:52;;;;;;;4.18;1.55;;;;;;;19.37;59.06;97257.00;10374498;28;20025;-21
2022/07/12 14:52:53;;;;;;;6.50;1.60;;;;;;;19.36;59.08;97262.91;10374794;28;20038;-21
2022/07/12 14:57:53;;;;;;;5.53;1.40;;;;;;;19.35;59.10;97258.69;10380746;28;20026;-21
2022/07/12 15:02:59;;;;;;;13.20;1.90;;;;;;;19.35;58.99;97261.22;10373347;28;20284;-21
2022/07/12 15:07:59;;;;;;;5.68;3.30;;;;;;;19.33;58.75;97252.75;10376720;28;20034;-21
2022/07/12 15:12:59;;;;;;;8.13;2.00;;;;;;;19.31;59.05;97244.25;10373717;28;20512;-21
2022/07/12 15:18:00;;;;;;;5.05;1.50;;;;;;;19.33;59.19;97240.06;10377350;28;20122;-21
2022/07/12 15:23:02;;;;;;;1.80;1.30;;;;;;;19.51;59.71;97242.69;10373783;28;20092;-21
2022/07/12 15:28:02;;;;;;;3.65;1.27;;;;;;;19.68;59.53;97243.59;10380088;28;20030;-20
2022/07/12 15:33:03;;;;;;;6.75;1.50;;;;;;;19.66;58.91;97241.03;10376608;28;20030;-21
2022/07/12 15:38:03;;;;;;;3.63;1.43;;;;;;;19.54;59.56;97242.69;10370792;28;20022;-20
2022/07/12 15:43:04;;;;;;;9.77;1.87;;;;;;;19.49;59.74;97242.66;10373552;28;20343;-21
2022/07/12 15:48:05;;;;;;;8.77;1.60;;;;;;;19.44;59.06;97240.97;10376418;28;20296;-20
2022/07/12 15:58:29;;;;;;;5.22;1.60;;;;;;;19.36;59.08;97246.00;10372416;28;20034;-21
2022/07/12 16:03:30;;;;;;;7.18;3.83;;;;;;;19.37;58.90;97257.88;10373354;28;20493;-21
2022/07/12 16:08:31;;;;;;;5.85;1.25;;;;;;;19.33;59.02;97255.31;10371277;28;20042;-21
2022/07/12 16:13:32;;;;;;;7.25;1.55;;;;;;;19.37;58.88;97257.88;10377103;28;20459;-20
2022/07/12 16:18:33;;;;;;;4.63;1.80;;;;;;;19.37;59.17;97262.94;10375075;28;20053;-20
2022/07/12 16:23:34;;;;;;;5.10;1.42;;;;;;;19.58;61.53;97259.66;10367531;28;20028;-21
2022/07/12 16:28:34;;;;;;;12.50;2.07;;;;;;;19.75;61.32;97263.09;10369740;28;20042;-20
2022/07/12 16:33:35;;;;;;;14.20;1.90;;;;;;;19.70;61.18;97257.16;10370108;28;20038;-20
2022/07/12 16:38:35;;;;;;;5.30;1.42;;;;;;;19.57;60.78;97261.34;10369340;28;20690;-20
2022/07/12 16:43:35;;;;;;;6.97;1.83;;;;;;;19.52;59.76;97259.63;10371578;28;20040;-20
2022/07/12 16:48:36;;;;;;;7.00;1.57;;;;;;;19.45;59.45;97253.66;10368683;28;20026;-21
2022/07/12 16:53:37;;;;;;;4.03;1.60;;;;;;;19.44;59.33;97264.66;10369318;28;20037;-21
2022/07/12 16:58:37;;;;;;;3.35;1.33;;;;;;;19.43;59.38;97262.13;10368955;28;20050;-21
2022/07/12 17:03:38;;;;;;;4.53;1.73;;;;;;;19.43;59.33;97257.88;10362659;28;20052;-21
2022/07/12 17:08:39;;;;;;;5.80;1.63;;;;;;;19.42;59.12;97255.34;10367284;28;20045;-21
2022/07/12 17:13:40;;;;;;;5.63;1.88;;;;;;;19.41;59.23;97264.63;10363365;28;20053;-20
2022/07/12 17:18:40;;;;;;;2.90;1.30;;;;;;;19.41;59.12;97262.09;10364073;28;20504;-21
2022/07/12 17:23:41;;;;;;;2.20;1.00;;;;;;;19.56;60.27;97248.63;10360553;28;20045;-21
2022/07/12 17:28:42;;;;;;;4.77;1.60;;;;;;;19.83;62.03;97276.69;10366958;28;20041;-20
2022/07/12 17:33:47;;;;;;;11.48;1.75;;;;;;;19.73;59.98;97267.31;10373097;28;20038;-20
2022/07/12 17:38:48;;;;;;;15.93;2.13;;;;;;;19.67;60.33;97267.31;10364004;28;20028;-22
2022/07/12 17:43:48;;;;;;;9.50;1.85;;;;;;;19.64;60.97;97268.13;10368753;28;20033;-20
2022/07/12 17:48:49;;;;;;;15.63;1.48;;;;;;;19.62;60.83;97274.91;10366706;28;20433;-19
2022/07/12 17:53:49;;;;;;;5.33;1.80;;;;;;;19.63;59.67;97275.75;10369516;28;20038;-20
2022/07/12 17:58:49;;;;;;;4.97;2.07;;;;;;;19.63;59.59;97273.19;10369166;28;20033;-20
2022/07/12 18:03:52;;;;;;;4.13;0.90;;;;;;;19.63;59.62;97276.59;10367255;28;20053;-19
2022/07/12 18:08:52;;;;;;;3.72;1.20;;;;;;;19.64;59.44;97277.44;10362545;28;20663;-20
2022/07/12 18:19:12;;;;;;;1.42;0.93;;;;;;;19.61;59.44;97279.97;10360570;28;20284;-20
2022/07/12 18:24:12;;;;;;;4.75;1.38;;;;;;;19.77;60.75;97279.19;10356235;28;20038;-20
2022/07/12 18:29:13;;;;;;;5.80;1.63;;;;;;;19.92;61.69;97284.34;10363664;28;20093;-20
2022/07/12 18:34:13;;;;;;;4.80;1.30;;;;;;;19.82;59.33;97274.97;10366595;28;20061;-19
2022/07/12 18:39:14;;;;;;;2.63;0.80;;;;;;;19.66;58.87;97276.59;10364448;28;20030;-19
2022/07/12 18:44:14;;;;;;;2.20;1.13;;;;;;;19.58;59.10;97272.34;10361621;28;20065;-20
2022/07/12 18:49:14;;;;;;;1.85;1.02;;;;;;;19.59;59.43;97268.97;10364698;28;20052;-19
2022/07/12 18:54:15;;;;;;;2.17;0.80;;;;;;;19.58;59.50;97277.44;10363165;28;20408;-20
2022/07/12 18:59:15;;;;;;;1.80;0.80;;;;;;;19.54;59.75;97275.72;10361995;28;20284;-21
2022/07/12 19:04:16;;;;;;;1.83;0.90;;;;;;;19.58;59.57;97287.59;10364774;28;20072;-21
2022/07/12 19:09:16;;;;;;;9.73;0.90;;;;;;;19.55;59.46;97293.50;10367669;28;20030;-21
2022/07/12 19:14:16;;;;;;;1.00;0.90;;;;;;;19.55;59.55;97300.25;10364973;28;20068;-20
2022/07/12 19:19:17;;;;;;;2.17;1.07;;;;;;;19.69;61.25;97293.56;10366674;28;20125;-20
2022/07/12 19:24:19;;;;;;;13.70;1.67;;;;;;;19.89;61.69;97304.63;10365727;28;20033;-20
2022/07/12 19:29:19;;;;;;;3.85;1.10;;;;;;;19.87;59.26;97316.50;10366126;28;20687;-20
2022/07/12 19:34:19;;;;;;;1.07;0.93;;;;;;;19.72;59.01;97326.59;10368406;28;20298;-20
2022/07/12 19:39:20;;;;;;;1.30;0.73;;;;;;;19.63;59.54;97326.53;10366769;28;20327;-20
2022/07/12 19:44:21;;;;;;;3.07;1.33;;;;;;;19.60;59.70;97340.06;10353567;28;20492;-20
2022/07/12 19:49:22;;;;;;;1.98;0.80;;;;;;;19.58;59.59;97341.75;10363468;28;20300;-20
2022/07/12 19:54:23;;;;;;;3.60;1.17;;;;;;;19.57;59.58;97346.81;10361075;28;20053;-20
2022/07/12 19:59:26;;;;;;;2.35;1.05;;;;;;;19.56;59.59;97358.69;10364477;28;20034;-20
2022/07/12 20:04:29;;;;;;;3.13;0.80;;;;;;;19.54;59.72;97362.06;10370366;28;20477;-20
2022/07/12 20:09:31;;;;;;;1.60;0.90;;;;;;;19.55;59.59;97361.22;10371993;28;20113;-21
2022/07/12 20:14:31;;;;;;;1.63;0.73;;;;;;;19.54;59.54;97364.59;10353749;28;20033;-20
2022/07/12 20:19:32;;;;;;;1.40;0.80;;;;;;;19.70;60.52;97369.78;10378701;28;20289;-21
2022/07/12 20:24:32;;;;;;;1.30;0.90;;;;;;;19.89;61.81;97363.09;10366160;28;20038;-20
2022/07/12 20:29:33;;;;;;;2.75;0.98;;;;;;;19.89;59.35;97365.63;10341678;28;20541;-20
2022/07/12 20:34:33;;;;;;;1.77;0.63;;;;;;;19.74;59.37;97365.56;10345682;28;20124;-21
2022/07/12 20:39:36;;;;;;;2.20;1.07;;;;;;;19.64;59.22;97372.28;10355472;28;20447;-20
2022/07/12 20:44:37;;;;;;;0.75;0.75;;;;;;;19.61;59.52;97367.16;10365856;28;20120;-20
2022/07/12 20:49:38;;;;;;;0.63;0.60;;;;;;;19.58;59.48;97362.09;10371850;28;20132;-20
2022/07/12 20:54:38;;;;;;;1.63;0.63;;;;;;;19.57;59.50;97362.06;10372829;28;20055;-19
2022/07/12 20:59:38;;;;;;;0.60;0.60;;;;;;;19.58;59.43;97363.78;10373680;28;20026;-20
2022/07/12 21:04:39;;;;;;;1.15;0.77;;;;;;;19.57;59.79;97359.53;10379099;28;20116;-20
2022/07/12 21:09:39;;;;;;;0.77;0.77;;;;;;;19.49;59.40;97353.59;10380965;28;20065;-20
2022/07/12 21:14:41;;;;;;;2.45;0.60;;;;;;;19.56;59.25;97370.53;10369348;28;20042;-20
2022/07/12 21:19:41;;;;;;;5.28;1.35;;;;;;;19.76;60.70;97363.88;10374290;28;20044;-19
2022/07/12 21:24:42;;;;;;;1.33;0.83;;;;;;;19.91;61.05;97361.44;10363064;28;20040;-20
2022/07/12 21:29:42;;;;;;;0.67;0.67;;;;;;;19.86;59.27;97352.94;10368293;28;20048;-20
2022/07/12 21:34:43;;;;;;;1.15;0.70;;;;;;;19.75;59.00;97367.28;10374168;28;20037;-19
2022/07/12 21:39:44;;;;;;;1.48;0.90;;;;;;;19.66;59.18;97369.78;10366944;28;20121;-20
2022/07/12 21:44:44;;;;;;;1.33;0.80;;;;;;;19.59;59.12;97366.31;10366386;28;20492;-20
2022/07/12 21:49:45;;;;;;;1.65;0.50;;;;;;;19.59;59.31;97371.41;10377960;28;20037;-19
2022/07/12 21:54:45;;;;;;;1.30;0.70;;;;;;;19.58;59.49;97371.41;10375446;28;20041;-20
2022/07/12 21:59:45;;;;;;;0.57;0.50;;;;;;;19.56;59.38;97365.44;10372993;28;20030;-20
2022/07/12 22:04:46;;;;;;;0.83;0.63;;;;;;;19.55;59.30;97368.84;10376837;28;20116;-21
2022/07/12 22:09:47;;;;;;;0.80;0.70;;;;;;;19.55;59.50;97367.16;10370188;28;21332;-19
2022/07/12 22:14:47;;;;;;;0.40;0.40;;;;;;;19.54;59.53;97365.47;10375650;28;20289;-19
2022/07/12 22:19:48;;;;;;;0.70;0.70;;;;;;;19.75;59.56;97370.66;10377305;28;20478;-20
2022/07/12 22:24:48;;;;;;;1.48;1.00;;;;;;;19.90;59.79;97369.88;10367787;28;20034;-21
2022/07/12 22:29:49;;;;;;;0.77;0.60;;;;;;;19.90;58.69;97372.41;10375448;28;20041;-19
2022/07/12 22:34:49;;;;;;;0.70;0.70;;;;;;;19.76;58.85;97358.81;10375258;28;20037;-20
2022/07/12 22:39:49;;;;;;;1.63;0.80;;;;;;;19.65;59.05;97360.41;10383588;28;20037;-21
2022/07/12 22:44:50;;;;;;;1.20;0.70;;;;;;;19.62;59.08;97360.41;10385822;28;20298;-20
2022/07/12 22:49:50;;;;;;;0.93;0.73;;;;;;;19.61;59.03;97348.56;10384711;28;20114;-20
2022/07/12 22:54:51;;;;;;;0.73;0.50;;;;;;;19.60;58.98;97362.94;10369230;28;20041;-20
2022/07/12 22:59:51;;;;;;;0.80;0.70;;;;;;;19.59;59.18;97365.50;10381700;28;20034;-20
2022/07/12 23:04:52;;;;;;;0.77;0.53;;;;;;;19.57;59.03;97369.69;10384772;28;20040;-20
2022/07/12 23:09:52;;;;;;;0.80;0.70;;;;;;;19.56;59.19;97368.84;10375665;28;20057;-20
2022/07/12 23:14:52;;;;;;;0.90;0.50;;;;;;;19.54;59.17;97367.13;10379153;28;20057;-20
2022/07/12 23:19:53;;;;;;;1.20;0.80;;;;;;;19.72;58.49;97357.94;10384858;28;20075;-20
2022/07/12 23:24:53;;;;;;;1.83;0.73;;;;;;;19.97;57.79;97369.06;10379131;28;20030;-20
2022/07/12 23:29:54;;;;;;;1.00;0.40;;;;;;;19.91;58.14;97374.13;10374665;28;20049;-20
2022/07/12 23:34:54;;;;;;;1.27;0.88;;;;;;;19.77;58.33;97368.13;10380357;28;20276;-20
2022/07/12 23:39:54;;;;;;;0.93;0.60;;;;;;;19.67;58.72;97363.84;10377154;28;20038;-20
2022/07/12 23:44:55;;;;;;;0.60;0.40;;;;;;;19.64;58.75;97371.44;10386649;28;20038;-20